Time;durP1;ratioP1;P1;durP2;ratioP2;P2;SDS_P1;SDS_P2;PMS_P1;PMS_P2;Temp;Humidity;BMP_temperature;BMP_pressure;BME280_temperature;BME280_humidity;BME280_pressure;Samples;Min_cycle;Max_cycle;Signal;HPM_P1;HPM_P2
2022/11/04 00:01:27;;;;;;;16.85;8.20;;;10.40;99.90;;;;;;4989820;28;20034;-72
2022/11/04 00:03:53;;;;;;;20.48;8.75;;;10.40;99.90;;;;;;4990496;28;20038;-73
2022/11/04 00:06:19;;;;;;;17.30;8.15;;;10.30;99.90;;;;;;4989567;28;20038;-74
2022/11/04 00:08:49;;;;;;;19.52;8.95;;;10.30;99.90;;;;;;4993450;28;20033;-73
2022/11/04 00:13:59;;;;;;;18.15;8.32;;;10.30;99.90;;;;;;4990443;28;20037;-72
2022/11/04 00:19:09;;;;;;;22.02;9.60;;;10.30;99.90;;;;;;4987308;28;20053;-74
2022/11/04 00:29:47;;;;;;;22.00;8.93;;;10.20;99.90;;;;;;4970966;28;20066;-73
2022/11/04 00:34:58;;;;;;;18.38;8.60;;;10.10;99.90;;;;;;4979527;28;20479;-72
2022/11/04 00:37:25;;;;;;;21.67;9.60;;;10.10;99.90;;;;;;4987942;28;20034;-73
2022/11/04 00:39:50;;;;;;;16.88;9.07;;;10.10;99.90;;;;;;4988607;28;20552;-73
2022/11/04 00:42:16;;;;;;;23.05;8.88;;;10.10;99.90;;;;;;4989602;28;20125;-72
2022/11/04 00:44:42;;;;;;;18.55;8.25;;;10.10;99.90;;;;;;4989619;28;20046;-74
2022/11/04 00:47:07;;;;;;;23.27;8.75;;;10.10;99.90;;;;;;4989259;28;20046;-73
2022/11/04 00:49:33;;;;;;;20.75;8.50;;;10.10;99.90;;;;;;4988170;28;20105;-74
2022/11/04 00:51:58;;;;;;;15.27;7.22;;;10.10;99.90;;;;;;4988897;28;20027;-73
2022/11/04 00:54:24;;;;;;;14.77;7.75;;;10.10;99.90;;;;;;4999418;28;20031;-73
2022/11/04 00:56:50;;;;;;;16.40;7.65;;;10.00;99.90;;;;;;4976321;28;20034;-74
2022/11/04 00:59:16;;;;;;;19.55;7.85;;;10.10;99.90;;;;;;4989317;28;20034;-72
2022/11/04 01:01:41;;;;;;;16.05;6.82;;;10.10;99.90;;;;;;4987235;28;20027;-73
2022/11/04 01:04:08;;;;;;;15.93;6.95;;;10.10;99.90;;;;;;4988035;28;20035;-72
2022/11/04 01:06:34;;;;;;;14.75;6.60;;;10.00;99.90;;;;;;4988211;28;20064;-72
2022/11/04 01:09:03;;;;;;;16.02;6.28;;;10.00;99.90;;;;;;4987661;28;20034;-74
2022/11/04 01:11:29;;;;;;;16.75;6.47;;;10.00;99.90;;;;;;4987329;28;20539;-74
2022/11/04 01:13:56;;;;;;;11.85;5.22;;;10.00;99.90;;;;;;4985624;28;20065;-72
2022/11/04 01:16:22;;;;;;;11.73;5.35;;;10.00;99.90;;;;;;4987297;28;20085;-73
2022/11/04 01:18:48;;;;;;;15.45;5.85;;;9.90;99.90;;;;;;4988320;28;20520;-73
2022/11/04 01:21:15;;;;;;;11.57;5.22;;;9.90;99.90;;;;;;4986264;28;20153;-73
2022/11/04 01:23:42;;;;;;;10.98;5.30;;;9.90;99.90;;;;;;5004267;28;20033;-74
2022/11/04 01:26:11;;;;;;;10.07;5.60;;;9.90;99.90;;;;;;4994423;28;20035;-73
2022/11/04 01:28:37;;;;;;;12.23;5.00;;;9.90;99.90;;;;;;4988667;28;20133;-73
2022/11/04 01:31:14;;;;;;;10.40;5.00;;;9.90;99.90;;;;;;4988540;28;20054;-74
2022/11/04 01:33:40;;;;;;;9.18;4.15;;;9.90;99.90;;;;;;4988687;28;20364;-73
2022/11/04 01:36:07;;;;;;;8.80;4.20;;;9.90;99.90;;;;;;4987354;28;20034;-76
2022/11/04 01:38:33;;;;;;;7.90;4.18;;;9.90;99.90;;;;;;4987556;28;20049;-72
2022/11/04 01:40:59;;;;;;;18.27;4.00;;;10.00;99.90;;;;;;4995688;28;20038;-72
2022/11/04 01:43:47;;;;;;;9.75;4.22;;;10.00;99.90;;;;;;4988737;28;20690;-72
2022/11/04 01:46:32;;;;;;;8.43;4.05;;;10.00;99.90;;;;;;4988368;28;20058;-74
2022/11/04 01:49:05;;;;;;;8.20;3.63;;;10.00;99.90;;;;;;4988915;28;20375;-73
2022/11/04 01:51:35;;;;;;;11.18;4.35;;;9.90;99.90;;;;;;4987641;28;20049;-73
2022/11/04 01:54:02;;;;;;;10.30;4.43;;;9.90;99.90;;;;;;4989795;28;20058;-74
2022/11/04 01:56:28;;;;;;;9.68;4.32;;;9.90;99.90;;;;;;4988472;28;20042;-74
2022/11/04 01:58:58;;;;;;;9.77;4.65;;;9.90;99.90;;;;;;4988262;28;20038;-73
2022/11/04 02:01:24;;;;;;;10.00;4.65;;;9.90;99.90;;;;;;4987218;28;20583;-74
2022/11/04 02:03:54;;;;;;;11.38;5.20;;;9.90;99.90;;;;;;4989507;28;20039;-74
2022/11/04 02:06:21;;;;;;;9.70;4.55;;;9.90;99.90;;;;;;4987660;28;20046;-71
2022/11/04 02:08:48;;;;;;;9.50;5.10;;;9.90;99.90;;;;;;4987164;28;20046;-74
2022/11/04 02:12:48;;;;;;;10.07;4.78;;;9.90;99.90;;;;;;4987115;28;20105;-73
2022/11/04 02:14:01;;;;;;;10.25;4.80;;;9.90;99.90;;;;;;4988296;28;20034;-73
2022/11/04 02:16:52;;;;;;;9.35;4.53;;;9.90;99.90;;;;;;4986974;28;20495;-73
2022/11/04 02:19:47;;;;;;;10.38;4.63;;;9.90;99.90;;;;;;4988360;28;20096;-71
2022/11/04 02:22:19;;;;;;;8.95;3.85;;;9.90;99.90;;;;;;4990258;28;20033;-73
2022/11/04 02:24:52;;;;;;;10.18;4.20;;;9.90;99.90;;;;;;4986031;28;20037;-73
2022/11/04 02:27:45;;;;;;;8.15;4.10;;;9.90;99.90;;;;;;4986894;28;20062;-72
2022/11/04 02:30:16;;;;;;;13.68;4.80;;;10.00;99.90;;;;;;4987106;28;20026;-73
2022/11/04 02:32:48;;;;;;;8.27;4.32;;;10.00;99.90;;;;;;4985463;28;20037;-74
2022/11/04 02:35:35;;;;;;;8.38;4.57;;;9.90;99.90;;;;;;4975557;28;20509;-73
2022/11/04 02:39:08;;;;;;;7.28;3.88;;;9.90;99.90;;;;;;4986223;28;20367;-74
2022/11/04 02:41:40;;;;;;;8.10;3.25;;;9.90;99.90;;;;;;4905334;29;20111;-74
2022/11/04 02:44:18;;;;;;;7.70;3.40;;;9.90;99.90;;;;;;4976852;28;20049;-74
2022/11/04 02:47:07;;;;;;;7.53;3.15;;;9.90;99.90;;;;;;4990412;28;20145;-74
2022/11/04 02:49:39;;;;;;;5.43;3.08;;;9.90;99.90;;;;;;4987791;28;20042;-71
2022/11/04 02:52:28;;;;;;;6.40;3.03;;;9.90;99.90;;;;;;4990861;28;20062;-74
2022/11/04 02:55:00;;;;;;;5.70;2.53;;;9.90;99.90;;;;;;4990325;28;20049;-73
2022/11/04 02:57:30;;;;;;;5.68;2.60;;;9.90;99.90;;;;;;4984197;28;20402;-73
2022/11/04 03:00:00;;;;;;;5.40;2.50;;;9.90;99.90;;;;;;4990192;28;20483;-72
2022/11/04 03:02:33;;;;;;;6.28;2.15;;;9.90;99.90;;;;;;4990536;28;20556;-73
2022/11/04 03:05:00;;;;;;;4.05;2.13;;;9.80;99.90;;;;;;4981758;28;20092;-73
2022/11/04 03:07:29;;;;;;;5.80;2.60;;;9.80;99.90;;;;;;4989983;28;20061;-73
2022/11/04 03:10:00;;;;;;;4.70;2.28;;;9.80;99.90;;;;;;4988864;28;20026;-73
2022/11/04 03:12:28;;;;;;;;;;;9.70;99.90;;;;;;4990234;28;20034;-73
2022/11/04 03:15:04;;;;;;;5.82;2.10;;;9.70;99.90;;;;;;4990197;28;19921;-73
2022/11/04 03:17:48;;;;;;;3.65;2.05;;;9.70;99.90;;;;;;4988614;28;20069;-72
2022/11/04 03:20:20;;;;;;;4.10;2.00;;;9.70;99.90;;;;;;4994872;28;20035;-74
2022/11/04 03:22:45;;;;;;;4.60;2.20;;;9.70;99.90;;;;;;4988020;28;20053;-72
2022/11/04 03:25:11;;;;;;;5.32;2.45;;;9.80;99.90;;;;;;4988810;28;20042;-74
2022/11/04 03:27:57;;;;;;;4.40;2.40;;;9.70;99.90;;;;;;4987691;28;20042;-70
2022/11/04 03:30:23;;;;;;;5.05;2.63;;;9.70;99.90;;;;;;4987155;28;21651;-72
2022/11/04 03:32:55;;;;;;;4.55;2.30;;;9.60;99.90;;;;;;4988692;28;20471;-73
2022/11/04 03:35:21;;;;;;;5.95;2.47;;;9.60;99.90;;;;;;4988562;28;20089;-74
2022/11/04 03:37:48;;;;;;;4.88;2.45;;;9.60;99.90;;;;;;4989654;28;20561;-73
2022/11/04 03:40:15;;;;;;;5.45;2.55;;;9.70;99.90;;;;;;4988966;28;20023;-74
2022/11/04 03:42:58;;;;;;;5.35;2.60;;;9.70;99.90;;;;;;4988112;28;20027;-74
2022/11/04 03:45:25;;;;;;;4.03;2.20;;;9.70;99.90;;;;;;4977006;28;20595;-72
2022/11/04 03:47:51;;;;;;;6.25;2.63;;;9.70;99.90;;;;;;4990659;28;20160;-73
2022/11/04 03:50:28;;;;;;;5.93;2.70;;;9.70;99.90;;;;;;4989045;28;20026;-72
2022/11/04 03:52:54;;;;;;;6.10;2.45;;;9.70;99.90;;;;;;4989905;28;20058;-73
2022/11/04 03:55:23;;;;;;;7.97;2.65;;;9.70;99.90;;;;;;4990627;28;20026;-73
2022/11/04 03:57:59;;;;;;;4.35;2.20;;;9.70;99.90;;;;;;4987619;28;20068;-72
2022/11/04 04:00:28;;;;;;;5.72;2.38;;;9.70;99.90;;;;;;4993851;28;20037;-71
2022/11/04 04:02:53;;;;;;;5.75;2.30;;;9.60;99.90;;;;;;4989010;28;20088;-74
2022/11/04 04:05:19;;;;;;;3.95;2.17;;;9.60;99.90;;;;;;4988727;28;20038;-72
2022/11/04 04:07:59;;;;;;;3.83;1.88;;;9.50;99.90;;;;;;4986855;28;20106;-74
2022/11/04 04:10:39;;;;;;;4.72;2.08;;;9.40;99.90;;;;;;4981549;28;20386;-71
2022/11/04 04:13:29;;;;;;;6.60;2.58;;;9.40;99.90;;;;;;4989021;28;20041;-74
2022/11/04 04:16:18;;;;;;;5.90;1.95;;;9.30;99.90;;;;;;4994592;28;20036;-73
2022/11/04 04:19:14;;;;;;;4.43;1.40;;;9.30;99.90;;;;;;4993810;28;20187;-73
2022/11/04 04:21:50;;;;;;;2.85;1.13;;;9.30;99.90;;;;;;4992506;28;20023;-73
2022/11/04 04:29:50;;;;;;;6.07;0.90;;;9.20;99.90;;;;;;4989219;28;20741;-73
2022/11/04 04:32:16;;;;;;;5.35;0.95;;;9.20;99.90;;;;;;4988909;28;20451;-72
2022/11/04 04:34:42;;;;;;;2.03;0.90;;;9.20;99.90;;;;;;4987946;28;20117;-74
2022/11/04 04:37:16;;;;;;;4.68;0.85;;;9.20;99.90;;;;;;5002715;28;20105;-74
2022/11/04 04:45:36;;;;;;;5.85;0.98;;;9.10;99.90;;;;;;4989998;28;20180;-74
2022/11/04 04:48:02;;;;;;;3.25;0.93;;;9.10;99.90;;;;;;4989120;28;20047;-73
2022/11/04 04:50:34;;;;;;;4.75;0.95;;;9.10;99.90;;;;;;4987566;28;20558;-70
2022/11/04 04:53:00;;;;;;;4.40;0.70;;;9.00;99.90;;;;;;4989396;28;20041;-74
2022/11/04 04:55:25;;;;;;;2.90;0.70;;;9.00;99.90;;;;;;5005027;28;20490;-73
2022/11/04 04:57:51;;;;;;;4.28;0.88;;;9.00;99.90;;;;;;4996086;28;20034;-74
2022/11/04 05:00:19;;;;;;;10.38;0.73;;;9.00;99.90;;;;;;4973497;28;20181;-74
2022/11/04 05:02:45;;;;;;;5.50;0.90;;;9.00;99.90;;;;;;4988000;28;20474;-73
2022/11/04 05:05:15;;;;;;;2.58;0.80;;;8.90;99.90;;;;;;4986261;28;20042;-73
2022/11/04 05:07:41;;;;;;;2.95;0.80;;;8.90;99.90;;;;;;4989195;28;20030;-73
2022/11/04 05:10:09;;;;;;;2.38;0.80;;;8.90;99.90;;;;;;4989202;28;20041;-71
2022/11/04 05:15:20;;;;;;;3.70;0.70;;;8.80;99.90;;;;;;4982636;28;20104;-72
2022/11/04 05:17:46;;;;;;;3.97;0.68;;;8.70;99.90;;;;;;4981692;28;20031;-73
2022/11/04 05:20:12;;;;;;;2.67;0.90;;;8.80;99.90;;;;;;5000969;28;20137;-71
2022/11/04 05:22:39;;;;;;;2.50;0.80;;;8.80;99.90;;;;;;4986756;28;20045;-71
2022/11/04 05:25:04;;;;;;;5.97;0.75;;;8.80;99.90;;;;;;4983658;28;20518;-72
2022/11/04 05:27:30;;;;;;;1.65;0.75;;;8.80;99.90;;;;;;4987722;28;20066;-73
2022/11/04 05:29:56;;;;;;;3.00;0.77;;;8.80;99.90;;;;;;4985394;28;20479;-73
2022/11/04 05:32:21;;;;;;;2.88;0.85;;;8.80;99.90;;;;;;4989270;28;20121;-73
2022/11/04 05:34:47;;;;;;;3.15;0.98;;;8.80;99.90;;;;;;4987203;28;20031;-72
2022/11/04 05:37:13;;;;;;;4.03;0.90;;;8.70;99.90;;;;;;4989258;28;20742;-73
2022/11/04 05:39:38;;;;;;;4.53;0.90;;;8.70;99.90;;;;;;4980556;28;20580;-72
2022/11/04 05:42:04;;;;;;;4.30;0.90;;;8.70;99.90;;;;;;4982298;28;20037;-71
2022/11/04 05:44:30;;;;;;;4.63;0.98;;;8.70;99.90;;;;;;4982660;28;20031;-74
2022/11/04 05:46:55;;;;;;;1.88;0.68;;;8.70;99.90;;;;;;4987697;28;20052;-72
2022/11/04 05:49:21;;;;;;;3.42;0.70;;;8.70;99.90;;;;;;4990483;28;20114;-73
2022/11/04 05:51:46;;;;;;;8.05;1.15;;;8.60;99.90;;;;;;4987118;28;20521;-72
2022/11/04 05:54:12;;;;;;;4.60;1.00;;;8.60;99.90;;;;;;4986238;28;20062;-73
2022/11/04 05:56:38;;;;;;;2.97;1.20;;;8.50;99.90;;;;;;4986048;28;20038;-73
2022/11/04 05:59:03;;;;;;;3.53;0.73;;;8.50;99.90;;;;;;4988151;28;20030;-74
2022/11/04 06:01:31;;;;;;;3.42;1.05;;;8.50;99.90;;;;;;4988141;28;20058;-73
2022/11/04 06:03:58;;;;;;;3.47;1.13;;;8.50;99.90;;;;;;4995044;28;20046;-72
2022/11/04 06:06:25;;;;;;;2.30;0.95;;;8.50;99.90;;;;;;4986460;28;20053;-73
2022/11/04 06:08:51;;;;;;;5.95;1.30;;;8.50;99.90;;;;;;4981026;28;20586;-72
2022/11/04 06:11:18;;;;;;;2.88;1.02;;;8.50;99.90;;;;;;4988886;28;20038;-73
2022/11/04 06:13:44;;;;;;;3.42;1.30;;;8.50;99.90;;;;;;4988099;28;20037;-72
2022/11/04 06:16:09;;;;;;;3.97;0.93;;;8.50;99.90;;;;;;4989796;28;20046;-73
2022/11/04 06:18:35;;;;;;;6.78;1.10;;;8.50;99.90;;;;;;4989990;28;20034;-74
2022/11/04 06:21:24;;;;;;;2.97;0.95;;;8.50;99.90;;;;;;4995217;28;20507;-72
2022/11/04 06:23:51;;;;;;;7.63;0.88;;;8.40;99.90;;;;;;4988378;28;20068;-72
2022/11/04 06:26:17;;;;;;;3.25;0.90;;;8.50;99.90;;;;;;4991879;28;20034;-72
2022/11/04 06:28:43;;;;;;;2.40;0.98;;;8.40;99.90;;;;;;4989908;28;20052;-74
2022/11/04 06:31:10;;;;;;;3.28;1.20;;;8.40;99.90;;;;;;4992357;28;20030;-73
2022/11/04 06:33:36;;;;;;;4.20;1.13;;;8.40;99.90;;;;;;4989991;28;20106;-75
2022/11/04 06:36:04;;;;;;;3.78;1.20;;;8.40;99.90;;;;;;4990412;28;20125;-73
2022/11/04 06:38:31;;;;;;;5.05;1.10;;;8.30;99.90;;;;;;4997395;28;20030;-73
2022/11/04 06:40:57;;;;;;;2.97;1.20;;;8.30;99.90;;;;;;5000092;28;20092;-73
2022/11/04 06:43:23;;;;;;;6.03;1.25;;;8.30;99.90;;;;;;4995157;28;20384;-73
2022/11/04 06:45:56;;;;;;;6.55;1.42;;;8.30;99.90;;;;;;4988708;28;20069;-73
2022/11/04 06:48:21;;;;;;;3.58;1.20;;;8.30;99.90;;;;;;5000121;28;20022;-71
2022/11/04 06:50:47;;;;;;;4.07;1.20;;;8.30;99.90;;;;;;4980184;28;20022;-73
2022/11/04 06:53:13;;;;;;;10.05;1.98;;;8.30;99.90;;;;;;4990384;28;20038;-73
2022/11/04 06:55:39;;;;;;;3.97;1.42;;;8.30;99.90;;;;;;4990034;28;20049;-73
2022/11/04 06:58:04;;;;;;;8.25;2.00;;;8.30;99.90;;;;;;4991631;28;20072;-73
2022/11/04 07:00:30;;;;;;;4.05;1.50;;;8.30;99.90;;;;;;4989340;28;20030;-72
2022/11/04 07:02:56;;;;;;;3.95;1.48;;;8.30;99.90;;;;;;4989119;28;20027;-73
2022/11/04 07:05:22;;;;;;;8.00;1.90;;;8.20;99.90;;;;;;4989220;28;20026;-72
2022/11/04 07:07:48;;;;;;;4.30;1.80;;;8.20;99.90;;;;;;4990073;28;20038;-73
2022/11/04 07:10:14;;;;;;;3.03;1.45;;;8.20;99.90;;;;;;4986981;28;20026;-73
2022/11/04 07:12:39;;;;;;;5.55;1.90;;;8.30;99.90;;;;;;4988385;28;20034;-72
2022/11/04 07:15:06;;;;;;;5.22;1.75;;;8.30;99.90;;;;;;4989805;28;20041;-73
2022/11/04 07:17:31;;;;;;;3.33;1.55;;;8.40;99.90;;;;;;4992292;28;20085;-73
2022/11/04 07:19:57;;;;;;;4.65;1.45;;;8.30;99.90;;;;;;4989136;28;20022;-74
2022/11/04 07:22:22;;;;;;;5.38;1.25;;;8.10;99.90;;;;;;4990346;28;20038;-73
2022/11/04 07:24:48;;;;;;;4.00;1.83;;;8.10;99.90;;;;;;4985333;28;20464;-74
2022/11/04 07:27:14;;;;;;;3.70;1.50;;;8.00;99.90;;;;;;4989576;28;20045;-71
2022/11/04 07:29:40;;;;;;;4.63;1.40;;;8.10;99.90;;;;;;4987752;28;20037;-73
2022/11/04 07:32:05;;;;;;;5.10;1.50;;;8.20;99.90;;;;;;4990075;28;20038;-74
2022/11/04 07:34:31;;;;;;;3.40;1.75;;;8.10;99.90;;;;;;4988199;28;20038;-73
2022/11/04 07:36:57;;;;;;;6.20;2.55;;;8.20;99.90;;;;;;4989311;28;20233;-72
2022/11/04 07:39:22;;;;;;;6.95;2.58;;;8.20;99.90;;;;;;4987930;28;20030;-72
2022/11/04 07:41:48;;;;;;;7.35;2.70;;;8.30;99.90;;;;;;4990337;28;20045;-71
2022/11/04 07:44:14;;;;;;;6.93;2.90;;;8.30;99.90;;;;;;4990773;28;20034;-73
2022/11/04 07:46:40;;;;;;;6.60;3.30;;;8.40;99.90;;;;;;4988116;28;20059;-75
2022/11/04 07:49:06;;;;;;;26.00;16.20;;;8.40;99.90;;;;;;5007865;28;20115;-73
2022/11/04 07:51:33;;;;;;;24.48;15.13;;;8.40;99.90;;;;;;4995351;28;20104;-72
2022/11/04 07:54:00;;;;;;;15.75;6.85;;;8.40;99.90;;;;;;4990327;28;20678;-72
2022/11/04 07:56:26;;;;;;;15.05;6.28;;;8.40;99.90;;;;;;4990236;28;20066;-74
2022/11/04 07:58:52;;;;;;;10.80;4.95;;;8.40;99.90;;;;;;4988917;28;20398;-72
2022/11/04 08:01:22;;;;;;;10.70;4.60;;;8.40;99.90;;;;;;4989226;28;20093;-72
2022/11/04 08:03:49;;;;;;;10.60;4.28;;;8.50;99.90;;;;;;4992375;28;20030;-74
2022/11/04 08:06:16;;;;;;;35.17;13.98;;;8.50;99.90;;;;;;4989895;28;20037;-73
2022/11/04 08:08:42;;;;;;;16.75;8.02;;;8.60;99.90;;;;;;4989128;28;20139;-71
2022/11/04 08:11:14;;;;;;;12.27;6.22;;;8.60;99.90;;;;;;4988562;28;20759;-73
2022/11/04 08:13:40;;;;;;;12.35;7.28;;;8.60;99.90;;;;;;4990382;28;20163;-75
2022/11/04 08:16:12;;;;;;;14.80;6.30;;;8.50;99.90;;;;;;4988581;28;20525;-73
2022/11/04 08:18:37;;;;;;;14.88;5.45;;;8.50;99.90;;;;;;4977502;28;20041;-73
2022/11/04 08:21:03;;;;;;;11.73;5.10;;;8.60;99.90;;;;;;4980957;28;20422;-72
2022/11/04 08:23:30;;;;;;;10.82;4.15;;;8.60;99.90;;;;;;4989815;28;20106;-72
2022/11/04 08:25:57;;;;;;;7.90;3.63;;;8.70;99.90;;;;;;4986423;28;20487;-73
2022/11/04 08:28:23;;;;;;;6.20;3.38;;;8.80;99.90;;;;;;4997716;28;20038;-72
2022/11/04 08:30:58;;;;;;;8.02;3.22;;;8.80;99.90;;;;;;4988907;28;20023;-72
2022/11/04 08:33:25;;;;;;;5.90;2.88;;;8.90;99.90;;;;;;4996003;28;20026;-72
2022/11/04 08:35:53;;;;;;;6.85;3.15;;;8.90;99.90;;;;;;4990220;28;20113;-72
2022/11/04 08:38:18;;;;;;;7.00;3.20;;;9.00;99.90;;;;;;4989131;28;20039;-72
2022/11/04 08:40:45;;;;;;;5.43;2.90;;;9.10;99.90;;;;;;4988041;28;20496;-73
2022/11/04 08:43:10;;;;;;;6.47;2.97;;;9.10;99.90;;;;;;4987559;28;20387;-71
2022/11/04 08:45:41;;;;;;;5.20;2.60;;;9.20;99.90;;;;;;4983803;28;20057;-71
2022/11/04 08:48:07;;;;;;;;;;;9.30;99.90;;;;;;4985296;28;20581;-72
2022/11/04 08:50:32;;;;;;;11.38;3.20;;;9.30;99.90;;;;;;4989882;28;19953;-71
2022/11/04 08:52:58;;;;;;;15.13;7.07;;;9.40;99.90;;;;;;4989333;28;20038;-69
2022/11/04 08:55:24;;;;;;;15.63;7.85;;;9.50;99.90;;;;;;4989801;28;20582;-71
2022/11/04 08:57:50;;;;;;;12.90;5.75;;;9.50;99.90;;;;;;4974972;28;20431;-69
2022/11/04 09:00:16;;;;;;;8.32;4.00;;;9.40;99.90;;;;;;4975811;28;20505;-73
2022/11/04 09:02:42;;;;;;;9.43;3.83;;;9.40;99.90;;;;;;4986086;28;20030;-74
2022/11/04 09:05:08;;;;;;;7.20;3.30;;;9.40;99.90;;;;;;4985210;28;20042;-71
2022/11/04 09:07:36;;;;;;;7.30;4.57;;;9.40;99.90;;;;;;4983052;28;20104;-72
2022/11/04 09:10:02;;;;;;;10.27;4.95;;;9.50;99.90;;;;;;5003212;28;20081;-70
2022/11/04 09:12:28;;;;;;;18.13;6.70;;;9.60;99.90;;;;;;4987117;28;20034;-72
2022/11/04 09:14:54;;;;;;;10.88;5.40;;;9.60;99.90;;;;;;4986884;28;20026;-72
2022/11/04 09:17:19;;;;;;;15.32;5.15;;;9.60;99.90;;;;;;4989726;28;20084;-70
2022/11/04 09:19:45;;;;;;;16.80;8.07;;;9.70;99.90;;;;;;4986584;28;20038;-73
2022/11/04 09:22:11;;;;;;;12.60;6.55;;;9.80;99.90;;;;;;4985821;28;20483;-72
2022/11/04 09:24:36;;;;;;;11.85;5.78;;;9.80;99.90;;;;;;4991757;28;20026;-70
2022/11/04 09:27:04;;;;;;;22.38;9.75;;;9.80;99.90;;;;;;4987070;28;20034;-71
2022/11/04 09:29:32;;;;;;;15.15;7.80;;;9.80;99.90;;;;;;4986150;28;20042;-73
2022/11/04 09:31:58;;;;;;;18.08;8.35;;;9.90;99.90;;;;;;4984366;28;20065;-72
2022/11/04 09:34:24;;;;;;;17.80;6.03;;;10.00;99.90;;;;;;4985910;28;20030;-69
2022/11/04 09:36:49;;;;;;;10.20;3.60;;;10.00;99.90;;;;;;4985081;28;20029;-68
2022/11/04 09:39:16;;;;;;;7.78;3.30;;;10.10;99.90;;;;;;4987389;28;20480;-72
2022/11/04 09:42:10;;;;;;;5.00;2.55;;;10.00;99.90;;;;;;4985721;28;20028;-70
2022/11/04 09:45:10;;;;;;;3.70;1.70;;;10.10;99.90;;;;;;4983071;28;20037;-73
2022/11/04 09:47:39;;;;;;;15.82;1.75;;;10.20;99.90;;;;;;4973871;28;20062;-71
2022/11/04 09:50:10;;;;;;;3.85;1.42;;;10.30;99.90;;;;;;4981606;28;20022;-72
2022/11/04 09:52:43;;;;;;;;;;;10.40;99.90;;;;;;4988903;28;20045;-75
2022/11/04 09:55:15;;;;;;;3.15;1.65;;;10.40;99.90;;;;;;4984436;28;19949;-74
2022/11/04 09:57:41;;;;;;;4.10;1.63;;;10.40;99.90;;;;;;4986040;28;20426;-72
2022/11/04 10:00:14;;;;;;;5.00;1.80;;;10.30;99.90;;;;;;4986326;28;20026;-72
2022/11/04 10:02:59;;;;;;;3.67;1.98;;;10.40;99.90;;;;;;4986773;28;20030;-71
2022/11/04 10:05:39;;;;;;;6.90;2.10;;;10.40;99.90;;;;;;4985343;28;20492;-73
2022/11/04 10:08:11;;;;;;;6.25;2.10;;;10.60;99.90;;;;;;4985537;28;20098;-72
2022/11/04 10:11:04;;;;;;;6.35;2.22;;;10.70;99.90;;;;;;4987793;28;20563;-72
2022/11/04 10:14:03;;;;;;;6.35;1.65;;;10.80;99.90;;;;;;4986589;28;20096;-72
2022/11/04 10:16:47;;;;;;;3.20;1.15;;;10.80;99.90;;;;;;4978374;28;20046;-75
2022/11/04 10:19:26;;;;;;;1.98;1.08;;;10.70;99.90;;;;;;4983567;28;20045;-70
2022/11/04 10:21:57;;;;;;;4.00;1.20;;;10.70;99.90;;;;;;4987253;28;20026;-71
2022/11/04 10:24:26;;;;;;;4.90;1.55;;;10.60;99.90;;;;;;4989898;28;20113;-71
2022/11/04 10:26:58;;;;;;;7.00;1.50;;;10.60;99.90;;;;;;4985294;28;20038;-73
2022/11/04 10:29:39;;;;;;;2.92;1.60;;;10.70;99.90;;;;;;4980740;28;20418;-71
2022/11/04 10:32:44;;;;;;;3.53;1.48;;;10.80;99.90;;;;;;4982568;28;20775;-71
2022/11/04 10:35:16;;;;;;;3.30;1.30;;;10.80;99.90;;;;;;4974053;28;20154;-73
2022/11/04 10:37:42;;;;;;;4.43;1.30;;;10.80;99.90;;;;;;4982220;28;20026;-69
2022/11/04 10:40:17;;;;;;;7.75;1.52;;;10.70;99.90;;;;;;4985886;28;20033;-72
2022/11/04 10:42:42;;;;;;;5.43;1.45;;;10.70;99.90;;;;;;4979683;28;20030;-71
2022/11/04 10:45:12;;;;;;;5.60;1.67;;;10.60;99.90;;;;;;4985774;28;20598;-72
2022/11/04 10:47:53;;;;;;;4.25;1.75;;;10.60;99.90;;;;;;4985620;28;20154;-74
2022/11/04 10:50:28;;;;;;;5.70;1.88;;;10.70;99.90;;;;;;4981297;28;20438;-72
2022/11/04 10:53:09;;;;;;;3.47;1.13;;;10.70;99.90;;;;;;4985496;28;20034;-72
2022/11/04 10:55:40;;;;;;;3.72;1.70;;;10.80;99.90;;;;;;4985647;28;20624;-71
2022/11/04 10:58:20;;;;;;;3.97;1.65;;;10.90;99.90;;;;;;4984868;28;20033;-71
2022/11/04 11:00:45;;;;;;;4.30;1.48;;;10.90;99.90;;;;;;4981636;28;20031;-72
2022/11/04 11:03:33;;;;;;;3.80;1.58;;;10.90;99.90;;;;;;4988589;28;20442;-74
2022/11/04 11:06:18;;;;;;;4.88;1.20;;;11.00;99.90;;;;;;4988869;28;20041;-73
2022/11/04 11:08:45;;;;;;;3.53;1.48;;;11.00;99.90;;;;;;4984809;28;20053;-73
2022/11/04 11:11:12;;;;;;;4.10;1.40;;;11.00;99.90;;;;;;4979814;28;20022;-72
2022/11/04 11:13:45;;;;;;;4.88;1.25;;;11.00;99.90;;;;;;4991972;28;20037;-74
2022/11/04 11:16:17;;;;;;;6.05;1.30;;;11.10;99.90;;;;;;4988521;28;20496;-74
2022/11/04 11:18:42;;;;;;;4.00;1.38;;;11.10;99.90;;;;;;4987326;28;20030;-73
2022/11/04 11:21:20;;;;;;;4.72;1.20;;;11.20;99.90;;;;;;4989152;28;20698;-72
2022/11/04 11:23:47;;;;;;;7.25;1.13;;;11.40;99.90;;;;;;4989603;28;20045;-73
2022/11/04 11:26:28;;;;;;;6.75;1.00;;;11.40;99.90;;;;;;4989335;28;20042;-73
2022/11/04 11:28:56;;;;;;;7.35;1.23;;;11.40;99.90;;;;;;4990614;28;20041;-73
2022/11/04 11:31:25;;;;;;;2.47;1.02;;;11.40;99.90;;;;;;5010168;28;20022;-73
2022/11/04 11:33:56;;;;;;;7.55;1.50;;;11.30;99.90;;;;;;5010994;28;20033;-73
2022/11/04 11:36:29;;;;;;;5.35;1.90;;;11.30;99.90;;;;;;5011349;28;20434;-73
2022/11/04 11:39:05;;;;;;;3.00;0.95;;;11.30;99.90;;;;;;5010575;28;20030;-72
2022/11/04 11:41:33;;;;;;;4.75;0.80;;;11.30;99.90;;;;;;4999841;28;20173;-73
2022/11/04 11:44:17;;;;;;;5.25;1.10;;;11.20;99.90;;;;;;5024360;28;20030;-72
2022/11/04 11:46:53;;;;;;;6.90;1.10;;;11.10;99.90;;;;;;5008006;28;20050;-73
2022/11/04 11:49:27;;;;;;;5.50;0.93;;;11.10;99.90;;;;;;5011219;28;20481;-73
2022/11/04 11:51:52;;;;;;;4.35;0.88;;;11.30;99.90;;;;;;5010568;28;20113;-72
2022/11/04 11:54:32;;;;;;;4.05;0.95;;;11.40;99.90;;;;;;5010812;28;20137;-73
2022/11/04 11:57:02;;;;;;;9.30;1.30;;;11.50;99.90;;;;;;4995348;28;20045;-73
2022/11/04 11:59:45;;;;;;;2.15;0.90;;;11.40;99.90;;;;;;4989039;28;20030;-71
2022/11/04 12:02:25;;;;;;;10.60;0.93;;;11.30;99.90;;;;;;4985461;28;20050;-73
2022/11/04 12:04:53;;;;;;;2.38;0.70;;;11.40;99.90;;;;;;4971656;28;20078;-75
2022/11/04 12:07:50;;;;;;;4.88;1.00;;;11.30;99.90;;;;;;4991334;28;20049;-74
2022/11/04 12:11:00;;;;;;;3.47;1.23;;;11.30;99.90;;;;;;4996526;28;20034;-73
2022/11/04 12:13:30;;;;;;;3.35;0.80;;;11.30;99.90;;;;;;4999907;28;20495;-73
2022/11/04 12:16:02;;;;;;;;;;;11.20;99.90;;;;;;4987003;28;20046;-73
2022/11/04 12:18:56;;;;;;;1.48;0.70;;;11.20;99.90;;;;;;4990071;28;19916;-72
2022/11/04 12:21:34;;;;;;;6.90;0.95;;;11.20;99.90;;;;;;4985375;28;20102;-73
2022/11/04 12:24:42;;;;;;;1.17;0.70;;;11.10;99.90;;;;;;4987110;28;20426;-73
2022/11/04 12:27:34;;;;;;;7.18;1.10;;;11.10;99.90;;;;;;4984372;28;20050;-72
2022/11/04 12:30:16;;;;;;;4.35;0.90;;;11.20;99.90;;;;;;4978681;28;20050;-73
2022/11/04 12:33:13;;;;;;;4.60;1.02;;;11.20;99.90;;;;;;4987837;28;20033;-72
2022/11/04 12:36:07;;;;;;;3.85;0.98;;;11.20;99.90;;;;;;4986239;28;20041;-72
2022/11/04 12:39:02;;;;;;;5.45;1.00;;;11.30;99.90;;;;;;4969988;28;20175;-72
2022/11/04 12:41:49;;;;;;;5.38;0.93;;;11.30;99.90;;;;;;4984646;28;20026;-73
2022/11/04 12:44:24;;;;;;;3.95;1.00;;;11.10;99.90;;;;;;4988142;28;20113;-73
2022/11/04 12:47:21;;;;;;;4.00;0.82;;;11.00;99.90;;;;;;4987748;28;20080;-72
2022/11/04 12:50:24;;;;;;;2.45;0.70;;;11.00;99.90;;;;;;4991372;28;20038;-72
2022/11/04 12:53:08;;;;;;;4.18;1.15;;;11.10;99.90;;;;;;4989448;28;20109;-72
2022/11/04 12:55:59;;;;;;;8.15;1.13;;;11.20;99.90;;;;;;4989843;28;20080;-72
2022/11/04 12:58:36;;;;;;;3.53;0.80;;;11.40;99.90;;;;;;4989046;28;20022;-72
2022/11/04 13:01:10;;;;;;;2.88;0.70;;;11.40;99.90;;;;;;4987291;28;20419;-71
2022/11/04 13:03:53;;;;;;;2.10;0.73;;;11.40;99.90;;;;;;4988765;28;20411;-71
2022/11/04 13:06:22;;;;;;;5.35;0.95;;;11.50;99.90;;;;;;4988973;28;20072;-72
2022/11/04 13:08:57;;;;;;;2.60;0.90;;;11.50;99.90;;;;;;4989598;28;20069;-73
2022/11/04 13:11:36;;;;;;;2.30;0.75;;;11.30;99.90;;;;;;4988810;28;20110;-72
2022/11/04 13:14:02;;;;;;;6.15;0.98;;;11.30;99.90;;;;;;4969730;28;20070;-71
2022/11/04 13:16:29;;;;;;;3.38;1.13;;;11.30;99.90;;;;;;4984987;28;20073;-72
2022/11/04 13:18:57;;;;;;;3.50;0.90;;;11.30;99.90;;;;;;4977333;28;20034;-73
2022/11/04 13:21:26;;;;;;;4.07;0.60;;;11.20;99.90;;;;;;4987700;28;20495;-73
2022/11/04 13:24:03;;;;;;;4.65;1.02;;;11.20;99.90;;;;;;4992243;28;20022;-72
2022/11/04 13:26:29;;;;;;;7.05;1.30;;;11.20;99.90;;;;;;4998424;28;20431;-72
2022/11/04 13:29:16;;;;;;;7.53;1.02;;;11.10;99.90;;;;;;4985113;28;20042;-73
2022/11/04 13:32:06;;;;;;;2.28;1.10;;;11.10;99.90;;;;;;4985029;28;20034;-73
2022/11/04 13:34:35;;;;;;;4.13;0.88;;;11.20;99.90;;;;;;4987227;28;20054;-73
2022/11/04 13:37:28;;;;;;;8.73;1.10;;;11.10;99.90;;;;;;4982981;28;20033;-72
2022/11/04 13:40:10;;;;;;;4.50;1.10;;;11.10;99.90;;;;;;4978290;28;20502;-73
2022/11/04 13:43:36;;;;;;;5.85;1.08;;;11.10;99.90;;;;;;4998636;28;20394;-72
2022/11/04 13:45:50;;;;;;;2.33;1.02;;;11.20;99.90;;;;;;4973274;28;20543;-71